sensor_id;sensor_type;location;lat;lon;timestamp;temperature;humidity
19906;DHT22;10115;50.906;4.438;2024-02-04T00:00:27;10.10;99.90
19906;DHT22;10115;50.906;4.438;2024-02-04T00:02:53;10.10;99.90
19906;DHT22;10115;50.906;4.438;2024-02-04T00:05:19;10.10;99.90
19906;DHT22;10115;50.906;4.438;2024-02-04T00:07:45;10.10;99.90
19906;DHT22;10115;50.906;4.438;2024-02-04T00:10:11;10.10;99.90
19906;DHT22;10115;50.906;4.438;2024-02-04T00:12:37;10.10;99.90
19906;DHT22;10115;50.906;4.438;2024-02-04T00:15:03;10.10;99.90
19906;DHT22;10115;50.906;4.438;2024-02-04T00:17:31;10.10;99.90
19906;DHT22;10115;50.906;4.438;2024-02-04T00:20:00;10.10;99.90
19906;DHT22;10115;50.906;4.438;2024-02-04T00:22:27;10.10;99.90
19906;DHT22;10115;50.906;4.438;2024-02-04T00:24:53;10.10;99.90
19906;DHT22;10115;50.906;4.438;2024-02-04T00:27:21;10.10;99.90
19906;DHT22;10115;50.906;4.438;2024-02-04T00:29:46;10.10;99.90
19906;DHT22;10115;50.906;4.438;2024-02-04T00:32:12;10.10;99.90
19906;DHT22;10115;50.906;4.438;2024-02-04T00:34:37;10.10;99.90
19906;DHT22;10115;50.906;4.438;2024-02-04T00:37:03;10.10;99.90
19906;DHT22;10115;50.906;4.438;2024-02-04T00:39:29;10.10;99.90
19906;DHT22;10115;50.906;4.438;2024-02-04T00:41:55;10.10;99.90
19906;DHT22;10115;50.906;4.438;2024-02-04T00:44:20;10.10;99.90
19906;DHT22;10115;50.906;4.438;2024-02-04T00:46:46;10.10;99.90
19906;DHT22;10115;50.906;4.438;2024-02-04T00:49:12;10.10;99.90
19906;DHT22;10115;50.906;4.438;2024-02-04T00:51:37;10.10;99.90
19906;DHT22;10115;50.906;4.438;2024-02-04T00:54:03;10.10;99.90
19906;DHT22;10115;50.906;4.438;2024-02-04T00:56:28;10.10;99.90
19906;DHT22;10115;50.906;4.438;2024-02-04T00:58:54;10.10;99.90
19906;DHT22;10115;50.906;4.438;2024-02-04T01:01:21;10.10;99.90
19906;DHT22;10115;50.906;4.438;2024-02-04T01:03:47;10.10;99.90
19906;DHT22;10115;50.906;4.438;2024-02-04T01:06:12;10.10;99.90
19906;DHT22;10115;50.906;4.438;2024-02-04T01:08:38;10.10;99.90
19906;DHT22;10115;50.906;4.438;2024-02-04T01:11:07;10.10;99.90
19906;DHT22;10115;50.906;4.438;2024-02-04T01:13:33;10.10;99.90
19906;DHT22;10115;50.906;4.438;2024-02-04T01:15:58;10.20;99.90
19906;DHT22;10115;50.906;4.438;2024-02-04T01:18:24;10.10;99.90
19906;DHT22;10115;50.906;4.438;2024-02-04T01:20:50;10.20;99.90
19906;DHT22;10115;50.906;4.438;2024-02-04T01:23:15;10.20;99.90
19906;DHT22;10115;50.906;4.438;2024-02-04T01:25:43;10.20;99.90
19906;DHT22;10115;50.906;4.438;2024-02-04T01:28:09;10.20;99.90
19906;DHT22;10115;50.906;4.438;2024-02-04T01:30:35;10.20;99.90
19906;DHT22;10115;50.906;4.438;2024-02-04T01:33:00;10.20;99.90
19906;DHT22;10115;50.906;4.438;2024-02-04T01:35:26;10.20;99.90
19906;DHT22;10115;50.906;4.438;2024-02-04T01:37:52;10.20;99.90
19906;DHT22;10115;50.906;4.438;2024-02-04T01:40:17;10.20;99.90
19906;DHT22;10115;50.906;4.438;2024-02-04T01:42:43;10.20;99.90
19906;DHT22;10115;50.906;4.438;2024-02-04T01:45:09;10.20;99.90
19906;DHT22;10115;50.906;4.438;2024-02-04T01:47:35;10.20;99.90
19906;DHT22;10115;50.906;4.438;2024-02-04T01:50:01;10.20;99.90
19906;DHT22;10115;50.906;4.438;2024-02-04T01:52:30;10.20;99.90
19906;DHT22;10115;50.906;4.438;2024-02-04T01:54:56;10.20;99.90
19906;DHT22;10115;50.906;4.438;2024-02-04T01:57:22;10.20;99.90
19906;DHT22;10115;50.906;4.438;2024-02-04T01:59:48;10.20;99.90
19906;DHT22;10115;50.906;4.438;2024-02-04T02:02:17;10.20;99.90
19906;DHT22;10115;50.906;4.438;2024-02-04T02:04:43;10.20;99.90
19906;DHT22;10115;50.906;4.438;2024-02-04T02:07:09;10.20;99.90
19906;DHT22;10115;50.906;4.438;2024-02-04T02:09:35;10.30;99.90
19906;DHT22;10115;50.906;4.438;2024-02-04T02:14:42;10.30;99.90
19906;DHT22;10115;50.906;4.438;2024-02-04T02:17:14;10.30;99.90
19906;DHT22;10115;50.906;4.438;2024-02-04T02:19:59;10.30;99.90
19906;DHT22;10115;50.906;4.438;2024-02-04T02:22:40;10.30;99.90
19906;DHT22;10115;50.906;4.438;2024-02-04T02:25:10;10.30;99.90
19906;DHT22;10115;50.906;4.438;2024-02-04T02:27:49;10.30;99.90
19906;DHT22;10115;50.906;4.438;2024-02-04T02:30:15;10.30;99.90
19906;DHT22;10115;50.906;4.438;2024-02-04T02:32:45;10.30;99.90
19906;DHT22;10115;50.906;4.438;2024-02-04T02:35:15;10.30;99.90
19906;DHT22;10115;50.906;4.438;2024-02-04T02:40:48;10.40;99.90
19906;DHT22;10115;50.906;4.438;2024-02-04T02:43:15;10.40;99.90
19906;DHT22;10115;50.906;4.438;2024-02-04T02:45:42;10.40;99.90
19906;DHT22;10115;50.906;4.438;2024-02-04T02:48:09;10.40;99.90
19906;DHT22;10115;50.906;4.438;2024-02-04T02:50:38;10.40;99.90
19906;DHT22;10115;50.906;4.438;2024-02-04T02:53:04;10.40;99.90
19906;DHT22;10115;50.906;4.438;2024-02-04T02:55:30;10.40;99.90
19906;DHT22;10115;50.906;4.438;2024-02-04T02:57:56;10.50;99.90
19906;DHT22;10115;50.906;4.438;2024-02-04T03:00:22;10.50;99.90
19906;DHT22;10115;50.906;4.438;2024-02-04T03:02:48;10.50;99.90
19906;DHT22;10115;50.906;4.438;2024-02-04T03:05:15;10.50;99.90
19906;DHT22;10115;50.906;4.438;2024-02-04T03:07:41;10.50;99.90
19906;DHT22;10115;50.906;4.438;2024-02-04T03:10:08;10.50;99.90
19906;DHT22;10115;50.906;4.438;2024-02-04T03:12:34;10.50;99.90
19906;DHT22;10115;50.906;4.438;2024-02-04T03:14:59;10.50;99.90
19906;DHT22;10115;50.906;4.438;2024-02-04T03:17:25;10.50;99.90
19906;DHT22;10115;50.906;4.438;2024-02-04T03:19:51;10.50;99.90
19906;DHT22;10115;50.906;4.438;2024-02-04T03:22:22;10.50;99.90
19906;DHT22;10115;50.906;4.438;2024-02-04T03:24:48;10.50;99.90
19906;DHT22;10115;50.906;4.438;2024-02-04T03:27:18;10.50;99.90
19906;DHT22;10115;50.906;4.438;2024-02-04T03:29:44;10.40;99.90
19906;DHT22;10115;50.906;4.438;2024-02-04T03:32:13;10.40;99.90
19906;DHT22;10115;50.906;4.438;2024-02-04T03:34:41;10.40;99.90
19906;DHT22;10115;50.906;4.438;2024-02-04T03:37:07;10.40;99.90
19906;DHT22;10115;50.906;4.438;2024-02-04T03:39:32;10.40;99.90
19906;DHT22;10115;50.906;4.438;2024-02-04T03:41:58;10.40;99.90
19906;DHT22;10115;50.906;4.438;2024-02-04T03:44:24;10.40;99.90
19906;DHT22;10115;50.906;4.438;2024-02-04T03:46:50;10.30;99.90
19906;DHT22;10115;50.906;4.438;2024-02-04T03:49:16;10.30;99.90
19906;DHT22;10115;50.906;4.438;2024-02-04T03:51:42;10.30;99.90
19906;DHT22;10115;50.906;4.438;2024-02-04T03:54:08;10.30;99.90
19906;DHT22;10115;50.906;4.438;2024-02-04T03:56:33;10.30;99.90
19906;DHT22;10115;50.906;4.438;2024-02-04T03:58:59;10.30;99.90
19906;DHT22;10115;50.906;4.438;2024-02-04T04:01:24;10.30;99.90
19906;DHT22;10115;50.906;4.438;2024-02-04T04:03:50;10.40;99.90
19906;DHT22;10115;50.906;4.438;2024-02-04T04:06:16;10.30;99.90
19906;DHT22;10115;50.906;4.438;2024-02-04T04:08:41;10.30;99.90
19906;DHT22;10115;50.906;4.438;2024-02-04T04:11:11;10.30;99.90
19906;DHT22;10115;50.906;4.438;2024-02-04T04:13:37;10.30;99.90
19906;DHT22;10115;50.906;4.438;2024-02-04T04:16:03;10.30;99.90
19906;DHT22;10115;50.906;4.438;2024-02-04T04:18:29;10.30;99.90
19906;DHT22;10115;50.906;4.438;2024-02-04T04:20:55;10.30;99.90
19906;DHT22;10115;50.906;4.438;2024-02-04T04:23:21;10.30;99.90
19906;DHT22;10115;50.906;4.438;2024-02-04T04:25:47;10.30;99.90
19906;DHT22;10115;50.906;4.438;2024-02-04T04:28:12;10.30;99.90
19906;DHT22;10115;50.906;4.438;2024-02-04T04:30:38;10.30;99.90
19906;DHT22;10115;50.906;4.438;2024-02-04T04:33:03;10.30;99.90
19906;DHT22;10115;50.906;4.438;2024-02-04T04:35:29;10.30;99.90
19906;DHT22;10115;50.906;4.438;2024-02-04T04:37:55;10.30;99.90
19906;DHT22;10115;50.906;4.438;2024-02-04T04:40:20;10.30;99.90
19906;DHT22;10115;50.906;4.438;2024-02-04T04:42:46;10.30;99.90
19906;DHT22;10115;50.906;4.438;2024-02-04T04:45:12;10.30;99.90
19906;DHT22;10115;50.906;4.438;2024-02-04T04:47:37;10.30;99.90
19906;DHT22;10115;50.906;4.438;2024-02-04T04:50:05;10.20;99.90
19906;DHT22;10115;50.906;4.438;2024-02-04T04:52:31;10.20;99.90
19906;DHT22;10115;50.906;4.438;2024-02-04T04:54:57;10.20;99.90
19906;DHT22;10115;50.906;4.438;2024-02-04T04:57:23;10.30;99.90
19906;DHT22;10115;50.906;4.438;2024-02-04T04:59:48;10.20;99.90
19906;DHT22;10115;50.906;4.438;2024-02-04T05:02:14;10.20;99.90
19906;DHT22;10115;50.906;4.438;2024-02-04T05:04:43;10.20;99.90
19906;DHT22;10115;50.906;4.438;2024-02-04T05:07:10;10.20;99.90
19906;DHT22;10115;50.906;4.438;2024-02-04T05:09:35;10.20;99.90
19906;DHT22;10115;50.906;4.438;2024-02-04T05:12:02;10.20;99.90
19906;DHT22;10115;50.906;4.438;2024-02-04T05:14:28;10.20;99.90
19906;DHT22;10115;50.906;4.438;2024-02-04T05:16:54;10.20;99.90
19906;DHT22;10115;50.906;4.438;2024-02-04T05:19:19;10.20;99.90
19906;DHT22;10115;50.906;4.438;2024-02-04T05:21:45;10.20;99.90
19906;DHT22;10115;50.906;4.438;2024-02-04T05:24:10;10.20;99.90
19906;DHT22;10115;50.906;4.438;2024-02-04T05:26:36;10.20;99.90
19906;DHT22;10115;50.906;4.438;2024-02-04T05:29:02;10.20;99.90
19906;DHT22;10115;50.906;4.438;2024-02-04T05:31:29;10.20;99.90
19906;DHT22;10115;50.906;4.438;2024-02-04T05:33:56;10.20;99.90
19906;DHT22;10115;50.906;4.438;2024-02-04T05:36:21;10.20;99.90
19906;DHT22;10115;50.906;4.438;2024-02-04T05:38:47;10.20;99.90
19906;DHT22;10115;50.906;4.438;2024-02-04T05:41:13;10.20;99.90
19906;DHT22;10115;50.906;4.438;2024-02-04T05:43:39;10.20;99.90
19906;DHT22;10115;50.906;4.438;2024-02-04T05:46:05;10.20;99.90
19906;DHT22;10115;50.906;4.438;2024-02-04T05:48:30;10.20;99.90
19906;DHT22;10115;50.906;4.438;2024-02-04T05:50:56;10.20;99.90
19906;DHT22;10115;50.906;4.438;2024-02-04T05:53:22;10.30;99.90
19906;DHT22;10115;50.906;4.438;2024-02-04T05:55:47;10.30;99.90
19906;DHT22;10115;50.906;4.438;2024-02-04T05:58:13;10.30;99.90
19906;DHT22;10115;50.906;4.438;2024-02-04T06:00:39;10.30;99.90
19906;DHT22;10115;50.906;4.438;2024-02-04T06:03:05;10.30;99.90
19906;DHT22;10115;50.906;4.438;2024-02-04T06:05:31;10.30;99.90
19906;DHT22;10115;50.906;4.438;2024-02-04T06:07:57;10.30;99.90
19906;DHT22;10115;50.906;4.438;2024-02-04T06:10:22;10.30;99.90
19906;DHT22;10115;50.906;4.438;2024-02-04T06:12:48;10.40;99.90
19906;DHT22;10115;50.906;4.438;2024-02-04T06:15:15;10.30;99.90
19906;DHT22;10115;50.906;4.438;2024-02-04T06:17:41;10.30;99.90
19906;DHT22;10115;50.906;4.438;2024-02-04T06:20:07;10.40;99.90
19906;DHT22;10115;50.906;4.438;2024-02-04T06:22:34;10.40;99.90
19906;DHT22;10115;50.906;4.438;2024-02-04T06:25:01;10.40;99.90
19906;DHT22;10115;50.906;4.438;2024-02-04T06:27:27;10.40;99.90
19906;DHT22;10115;50.906;4.438;2024-02-04T06:29:52;10.40;99.90
19906;DHT22;10115;50.906;4.438;2024-02-04T06:32:18;10.40;99.90
19906;DHT22;10115;50.906;4.438;2024-02-04T06:34:46;10.40;99.90
19906;DHT22;10115;50.906;4.438;2024-02-04T06:37:11;10.40;99.90
19906;DHT22;10115;50.906;4.438;2024-02-04T06:39:37;10.30;99.90
19906;DHT22;10115;50.906;4.438;2024-02-04T06:42:03;10.30;99.90
19906;DHT22;10115;50.906;4.438;2024-02-04T06:44:29;10.30;99.90
19906;DHT22;10115;50.906;4.438;2024-02-04T06:46:55;10.40;99.90
19906;DHT22;10115;50.906;4.438;2024-02-04T06:49:21;10.40;99.90
19906;DHT22;10115;50.906;4.438;2024-02-04T06:51:46;10.40;99.90
19906;DHT22;10115;50.906;4.438;2024-02-04T06:54:13;10.40;99.90
19906;DHT22;10115;50.906;4.438;2024-02-04T06:56:39;10.40;99.90
19906;DHT22;10115;50.906;4.438;2024-02-04T06:59:05;10.40;99.90
19906;DHT22;10115;50.906;4.438;2024-02-04T07:01:30;10.40;99.90
19906;DHT22;10115;50.906;4.438;2024-02-04T07:03:56;10.40;99.90
19906;DHT22;10115;50.906;4.438;2024-02-04T07:06:22;10.40;99.90
19906;DHT22;10115;50.906;4.438;2024-02-04T07:08:48;10.40;99.90
19906;DHT22;10115;50.906;4.438;2024-02-04T07:11:13;10.40;99.90
19906;DHT22;10115;50.906;4.438;2024-02-04T07:13:39;10.40;99.90
19906;DHT22;10115;50.906;4.438;2024-02-04T07:16:05;10.40;99.90
19906;DHT22;10115;50.906;4.438;2024-02-04T07:18:30;10.40;99.90
19906;DHT22;10115;50.906;4.438;2024-02-04T07:20:56;10.40;99.90
19906;DHT22;10115;50.906;4.438;2024-02-04T07:23:22;10.40;99.90
19906;DHT22;10115;50.906;4.438;2024-02-04T07:25:48;10.40;99.90
19906;DHT22;10115;50.906;4.438;2024-02-04T07:28:14;10.40;99.90
19906;DHT22;10115;50.906;4.438;2024-02-04T07:30:39;10.40;99.90
19906;DHT22;10115;50.906;4.438;2024-02-04T07:33:05;10.40;99.90
19906;DHT22;10115;50.906;4.438;2024-02-04T07:35:31;10.40;99.90
19906;DHT22;10115;50.906;4.438;2024-02-04T07:37:57;10.40;99.90
19906;DHT22;10115;50.906;4.438;2024-02-04T07:40:22;10.40;99.90
19906;DHT22;10115;50.906;4.438;2024-02-04T07:42:48;10.40;99.90
19906;DHT22;10115;50.906;4.438;2024-02-04T07:45:14;10.40;99.90
19906;DHT22;10115;50.906;4.438;2024-02-04T07:47:39;10.40;99.90
19906;DHT22;10115;50.906;4.438;2024-02-04T07:50:05;10.40;99.90
19906;DHT22;10115;50.906;4.438;2024-02-04T07:52:31;10.40;99.90
19906;DHT22;10115;50.906;4.438;2024-02-04T07:54:57;10.40;99.90
19906;DHT22;10115;50.906;4.438;2024-02-04T07:57:23;10.50;99.90
19906;DHT22;10115;50.906;4.438;2024-02-04T07:59:48;10.40;99.90
19906;DHT22;10115;50.906;4.438;2024-02-04T08:02:14;10.50;99.90
19906;DHT22;10115;50.906;4.438;2024-02-04T08:04:42;10.50;99.90
19906;DHT22;10115;50.906;4.438;2024-02-04T08:07:08;10.50;99.90
19906;DHT22;10115;50.906;4.438;2024-02-04T08:09:34;10.50;99.90
19906;DHT22;10115;50.906;4.438;2024-02-04T08:11:59;10.50;99.90
19906;DHT22;10115;50.906;4.438;2024-02-04T08:14:25;10.50;99.90
19906;DHT22;10115;50.906;4.438;2024-02-04T08:16:51;10.50;99.90
19906;DHT22;10115;50.906;4.438;2024-02-04T08:19:16;10.60;99.90
19906;DHT22;10115;50.906;4.438;2024-02-04T08:21:42;10.60;99.90
19906;DHT22;10115;50.906;4.438;2024-02-04T08:24:08;10.60;99.90
19906;DHT22;10115;50.906;4.438;2024-02-04T08:26:34;10.60;99.90
19906;DHT22;10115;50.906;4.438;2024-02-04T08:29:00;10.60;99.90
19906;DHT22;10115;50.906;4.438;2024-02-04T08:31:26;10.60;99.90
19906;DHT22;10115;50.906;4.438;2024-02-04T08:33:51;10.60;99.90
19906;DHT22;10115;50.906;4.438;2024-02-04T08:36:18;10.60;99.90
19906;DHT22;10115;50.906;4.438;2024-02-04T08:38:44;10.60;99.90
19906;DHT22;10115;50.906;4.438;2024-02-04T08:41:11;10.60;99.90
19906;DHT22;10115;50.906;4.438;2024-02-04T08:43:36;10.60;99.90
19906;DHT22;10115;50.906;4.438;2024-02-04T08:46:03;10.60;99.90
19906;DHT22;10115;50.906;4.438;2024-02-04T08:48:29;10.60;99.90
19906;DHT22;10115;50.906;4.438;2024-02-04T08:50:54;10.70;99.90
19906;DHT22;10115;50.906;4.438;2024-02-04T08:53:21;10.60;99.90
19906;DHT22;10115;50.906;4.438;2024-02-04T08:55:47;10.70;99.90
19906;DHT22;10115;50.906;4.438;2024-02-04T08:58:12;10.70;99.90
19906;DHT22;10115;50.906;4.438;2024-02-04T09:00:38;10.70;99.90
19906;DHT22;10115;50.906;4.438;2024-02-04T09:03:04;10.70;99.90
19906;DHT22;10115;50.906;4.438;2024-02-04T09:05:29;10.70;99.90
19906;DHT22;10115;50.906;4.438;2024-02-04T09:07:55;10.70;99.90
19906;DHT22;10115;50.906;4.438;2024-02-04T09:10:21;10.80;99.90
19906;DHT22;10115;50.906;4.438;2024-02-04T09:12:47;10.80;99.90
19906;DHT22;10115;50.906;4.438;2024-02-04T09:15:13;10.80;99.90
19906;DHT22;10115;50.906;4.438;2024-02-04T09:17:39;10.90;99.90
19906;DHT22;10115;50.906;4.438;2024-02-04T09:20:05;10.90;99.90
19906;DHT22;10115;50.906;4.438;2024-02-04T09:22:31;10.90;99.90
19906;DHT22;10115;50.906;4.438;2024-02-04T09:24:57;10.90;99.90
19906;DHT22;10115;50.906;4.438;2024-02-04T09:27:22;10.90;99.90
19906;DHT22;10115;50.906;4.438;2024-02-04T09:29:48;10.90;99.90
19906;DHT22;10115;50.906;4.438;2024-02-04T09:32:13;10.90;99.90
19906;DHT22;10115;50.906;4.438;2024-02-04T09:34:39;10.90;99.90
19906;DHT22;10115;50.906;4.438;2024-02-04T09:37:06;10.90;99.90
19906;DHT22;10115;50.906;4.438;2024-02-04T09:39:32;10.80;99.90
19906;DHT22;10115;50.906;4.438;2024-02-04T09:41:58;10.80;99.90
19906;DHT22;10115;50.906;4.438;2024-02-04T09:44:25;10.90;99.90
19906;DHT22;10115;50.906;4.438;2024-02-04T09:46:51;10.90;99.90
19906;DHT22;10115;50.906;4.438;2024-02-04T09:49:17;10.90;99.90
19906;DHT22;10115;50.906;4.438;2024-02-04T09:51:44;10.90;99.90
19906;DHT22;10115;50.906;4.438;2024-02-04T09:54:10;10.90;99.90
19906;DHT22;10115;50.906;4.438;2024-02-04T09:56:38;10.90;99.90
19906;DHT22;10115;50.906;4.438;2024-02-04T09:59:04;10.90;99.90
19906;DHT22;10115;50.906;4.438;2024-02-04T10:01:31;10.90;99.90
19906;DHT22;10115;50.906;4.438;2024-02-04T10:03:57;10.90;99.90
19906;DHT22;10115;50.906;4.438;2024-02-04T10:06:24;10.90;99.90
19906;DHT22;10115;50.906;4.438;2024-02-04T10:08:50;10.90;99.90
19906;DHT22;10115;50.906;4.438;2024-02-04T10:11:16;11.00;99.90
19906;DHT22;10115;50.906;4.438;2024-02-04T10:13:46;11.00;99.90
19906;DHT22;10115;50.906;4.438;2024-02-04T10:16:13;11.00;99.90
19906;DHT22;10115;50.906;4.438;2024-02-04T10:18:46;11.10;99.90
19906;DHT22;10115;50.906;4.438;2024-02-04T10:21:20;11.10;99.90
19906;DHT22;10115;50.906;4.438;2024-02-04T10:23:50;11.10;99.90
19906;DHT22;10115;50.906;4.438;2024-02-04T10:26:17;11.20;99.90
19906;DHT22;10115;50.906;4.438;2024-02-04T10:28:45;11.20;99.90
19906;DHT22;10115;50.906;4.438;2024-02-04T10:31:13;11.20;99.90
19906;DHT22;10115;50.906;4.438;2024-02-04T10:33:39;11.20;99.90
19906;DHT22;10115;50.906;4.438;2024-02-04T10:36:05;11.20;99.90
19906;DHT22;10115;50.906;4.438;2024-02-04T10:38:32;11.20;99.90
19906;DHT22;10115;50.906;4.438;2024-02-04T10:41:00;11.20;99.90
19906;DHT22;10115;50.906;4.438;2024-02-04T10:43:31;11.30;99.90
19906;DHT22;10115;50.906;4.438;2024-02-04T10:46:01;11.30;99.90
19906;DHT22;10115;50.906;4.438;2024-02-04T10:48:34;11.30;99.90
19906;DHT22;10115;50.906;4.438;2024-02-04T10:51:10;11.30;99.90
19906;DHT22;10115;50.906;4.438;2024-02-04T10:53:38;11.30;99.90
19906;DHT22;10115;50.906;4.438;2024-02-04T10:56:06;11.40;99.90
19906;DHT22;10115;50.906;4.438;2024-02-04T10:58:35;11.40;99.90
19906;DHT22;10115;50.906;4.438;2024-02-04T11:01:01;11.30;99.90
19906;DHT22;10115;50.906;4.438;2024-02-04T11:03:27;11.40;99.90
19906;DHT22;10115;50.906;4.438;2024-02-04T11:05:54;11.30;99.90
19906;DHT22;10115;50.906;4.438;2024-02-04T11:08:20;11.30;99.90
19906;DHT22;10115;50.906;4.438;2024-02-04T11:10:46;11.40;99.90
19906;DHT22;10115;50.906;4.438;2024-02-04T11:13:12;11.40;99.90
19906;DHT22;10115;50.906;4.438;2024-02-04T11:15:40;11.40;99.90
19906;DHT22;10115;50.906;4.438;2024-02-04T11:21:16;11.40;99.90
19906;DHT22;10115;50.906;4.438;2024-02-04T11:24:08;11.40;99.90
19906;DHT22;10115;50.906;4.438;2024-02-04T11:26:41;11.40;99.90
19906;DHT22;10115;50.906;4.438;2024-02-04T11:29:09;11.40;99.90
19906;DHT22;10115;50.906;4.438;2024-02-04T11:31:38;11.40;99.90
19906;DHT22;10115;50.906;4.438;2024-02-04T11:34:08;11.40;99.90
19906;DHT22;10115;50.906;4.438;2024-02-04T11:36:38;11.40;99.90
19906;DHT22;10115;50.906;4.438;2024-02-04T11:39:12;11.40;99.90
19906;DHT22;10115;50.906;4.438;2024-02-04T11:41:49;11.50;99.90
19906;DHT22;10115;50.906;4.438;2024-02-04T11:44:26;11.40;99.90
19906;DHT22;10115;50.906;4.438;2024-02-04T11:46:52;11.40;99.90
19906;DHT22;10115;50.906;4.438;2024-02-04T11:49:19;11.40;99.90
19906;DHT22;10115;50.906;4.438;2024-02-04T11:51:46;11.40;99.90
19906;DHT22;10115;50.906;4.438;2024-02-04T11:54:14;11.40;99.90
19906;DHT22;10115;50.906;4.438;2024-02-04T11:56:41;11.50;99.90
19906;DHT22;10115;50.906;4.438;2024-02-04T11:59:07;11.50;99.90
19906;DHT22;10115;50.906;4.438;2024-02-04T12:01:33;11.40;99.90
19906;DHT22;10115;50.906;4.438;2024-02-04T12:04:13;11.30;99.90
19906;DHT22;10115;50.906;4.438;2024-02-04T12:06:42;11.30;99.90
19906;DHT22;10115;50.906;4.438;2024-02-04T12:09:09;11.30;99.90
19906;DHT22;10115;50.906;4.438;2024-02-04T12:11:38;11.30;99.90
19906;DHT22;10115;50.906;4.438;2024-02-04T12:14:05;11.30;99.90
19906;DHT22;10115;50.906;4.438;2024-02-04T12:16:32;11.30;99.90
19906;DHT22;10115;50.906;4.438;2024-02-04T12:19:00;11.20;99.90
19906;DHT22;10115;50.906;4.438;2024-02-04T12:21:26;11.20;99.90
19906;DHT22;10115;50.906;4.438;2024-02-04T12:23:52;11.20;99.90
19906;DHT22;10115;50.906;4.438;2024-02-04T12:26:18;11.20;99.90
19906;DHT22;10115;50.906;4.438;2024-02-04T12:28:44;11.20;99.90
19906;DHT22;10115;50.906;4.438;2024-02-04T12:31:20;11.20;99.90
19906;DHT22;10115;50.906;4.438;2024-02-04T12:33:59;11.20;99.90
19906;DHT22;10115;50.906;4.438;2024-02-04T12:36:30;11.20;99.90
19906;DHT22;10115;50.906;4.438;2024-02-04T12:39:00;11.20;99.90
19906;DHT22;10115;50.906;4.438;2024-02-04T12:41:27;11.20;99.90
19906;DHT22;10115;50.906;4.438;2024-02-04T12:43:57;11.20;99.90
19906;DHT22;10115;50.906;4.438;2024-02-04T12:46:28;11.30;99.90
19906;DHT22;10115;50.906;4.438;2024-02-04T12:48:55;11.40;99.90
19906;DHT22;10115;50.906;4.438;2024-02-04T12:51:28;11.50;99.90
19906;DHT22;10115;50.906;4.438;2024-02-04T12:54:08;11.40;99.90
19906;DHT22;10115;50.906;4.438;2024-02-04T12:59:33;11.50;99.90
19906;DHT22;10115;50.906;4.438;2024-02-04T13:02:07;11.40;99.90
19906;DHT22;10115;50.906;4.438;2024-02-04T13:04:40;11.40;99.90
19906;DHT22;10115;50.906;4.438;2024-02-04T13:07:11;11.50;99.90
19906;DHT22;10115;50.906;4.438;2024-02-04T13:09:43;11.40;99.90
19906;DHT22;10115;50.906;4.438;2024-02-04T13:12:10;11.40;99.90
19906;DHT22;10115;50.906;4.438;2024-02-04T13:14:36;11.40;99.90
19906;DHT22;10115;50.906;4.438;2024-02-04T13:17:03;11.40;99.90
19906;DHT22;10115;50.906;4.438;2024-02-04T13:19:37;11.40;99.90
19906;DHT22;10115;50.906;4.438;2024-02-04T13:22:04;11.40;99.90
19906;DHT22;10115;50.906;4.438;2024-02-04T13:24:30;11.40;99.90
19906;DHT22;10115;50.906;4.438;2024-02-04T13:26:57;11.40;99.90
19906;DHT22;10115;50.906;4.438;2024-02-04T13:29:24;11.40;99.90
19906;DHT22;10115;50.906;4.438;2024-02-04T13:31:49;11.50;99.90
19906;DHT22;10115;50.906;4.438;2024-02-04T13:34:15;11.50;99.90
19906;DHT22;10115;50.906;4.438;2024-02-04T13:36:42;11.50;99.90
19906;DHT22;10115;50.906;4.438;2024-02-04T13:39:08;11.50;99.90
19906;DHT22;10115;50.906;4.438;2024-02-04T13:41:33;11.50;99.90
19906;DHT22;10115;50.906;4.438;2024-02-04T13:43:59;11.50;99.90
19906;DHT22;10115;50.906;4.438;2024-02-04T13:46:29;11.40;99.90
19906;DHT22;10115;50.906;4.438;2024-02-04T13:48:55;11.40;99.90
19906;DHT22;10115;50.906;4.438;2024-02-04T13:51:21;11.40;99.90
19906;DHT22;10115;50.906;4.438;2024-02-04T13:53:46;11.30;99.90
19906;DHT22;10115;50.906;4.438;2024-02-04T13:56:12;11.30;99.90
19906;DHT22;10115;50.906;4.438;2024-02-04T13:58:37;11.20;99.90
19906;DHT22;10115;50.906;4.438;2024-02-04T14:01:03;11.20;99.90
19906;DHT22;10115;50.906;4.438;2024-02-04T14:03:29;11.10;99.90
19906;DHT22;10115;50.906;4.438;2024-02-04T14:05:55;11.00;99.90
19906;DHT22;10115;50.906;4.438;2024-02-04T14:08:21;11.00;99.90
19906;DHT22;10115;50.906;4.438;2024-02-04T14:10:46;11.00;99.90
19906;DHT22;10115;50.906;4.438;2024-02-04T14:13:12;11.00;99.90
19906;DHT22;10115;50.906;4.438;2024-02-04T14:15:38;11.00;99.90
19906;DHT22;10115;50.906;4.438;2024-02-04T14:18:04;11.00;99.90
19906;DHT22;10115;50.906;4.438;2024-02-04T14:20:31;11.00;99.90
19906;DHT22;10115;50.906;4.438;2024-02-04T14:22:56;11.00;99.90
19906;DHT22;10115;50.906;4.438;2024-02-04T14:25:23;11.00;99.90
19906;DHT22;10115;50.906;4.438;2024-02-04T14:27:50;11.00;99.90
19906;DHT22;10115;50.906;4.438;2024-02-04T14:30:15;11.00;99.90
19906;DHT22;10115;50.906;4.438;2024-02-04T14:32:41;11.00;99.90
19906;DHT22;10115;50.906;4.438;2024-02-04T14:35:08;11.00;99.90
19906;DHT22;10115;50.906;4.438;2024-02-04T14:37:36;11.00;99.90
19906;DHT22;10115;50.906;4.438;2024-02-04T14:40:03;10.90;99.90
19906;DHT22;10115;50.906;4.438;2024-02-04T14:42:29;11.00;99.90
19906;DHT22;10115;50.906;4.438;2024-02-04T14:44:55;10.90;99.90
19906;DHT22;10115;50.906;4.438;2024-02-04T14:47:21;11.00;99.90
19906;DHT22;10115;50.906;4.438;2024-02-04T14:49:47;11.00;99.90
19906;DHT22;10115;50.906;4.438;2024-02-04T14:52:14;11.00;99.90
19906;DHT22;10115;50.906;4.438;2024-02-04T14:54:40;10.90;99.90
19906;DHT22;10115;50.906;4.438;2024-02-04T14:57:05;11.00;99.90
19906;DHT22;10115;50.906;4.438;2024-02-04T14:59:31;11.00;99.90
19906;DHT22;10115;50.906;4.438;2024-02-04T15:02:03;11.00;99.90
19906;DHT22;10115;50.906;4.438;2024-02-04T15:04:30;11.00;99.90
19906;DHT22;10115;50.906;4.438;2024-02-04T15:06:57;11.00;99.90
19906;DHT22;10115;50.906;4.438;2024-02-04T15:09:23;11.10;99.90
19906;DHT22;10115;50.906;4.438;2024-02-04T15:11:49;11.10;99.90
19906;DHT22;10115;50.906;4.438;2024-02-04T15:14:15;11.10;99.90
19906;DHT22;10115;50.906;4.438;2024-02-04T15:16:42;11.10;99.90
19906;DHT22;10115;50.906;4.438;2024-02-04T15:19:08;11.10;99.90
19906;DHT22;10115;50.906;4.438;2024-02-04T15:21:35;11.20;99.90
19906;DHT22;10115;50.906;4.438;2024-02-04T15:24:01;11.10;99.90
19906;DHT22;10115;50.906;4.438;2024-02-04T15:26:33;11.20;99.90
19906;DHT22;10115;50.906;4.438;2024-02-04T15:29:02;11.20;99.90
19906;DHT22;10115;50.906;4.438;2024-02-04T15:31:29;11.20;99.90
19906;DHT22;10115;50.906;4.438;2024-02-04T15:33:55;11.20;99.90
19906;DHT22;10115;50.906;4.438;2024-02-04T15:36:21;11.20;99.90
19906;DHT22;10115;50.906;4.438;2024-02-04T15:38:47;11.20;99.90